sensor_id;sensor_type;location;lat;lon;timestamp;P1;durP1;ratioP1;P2;durP2;ratioP2
66707;SDS011;53622;0.000;0.000;2023-08-06T00:01:57;1.20;;;1.10;;
66707;SDS011;53622;0.000;0.000;2023-08-06T00:04:27;1.45;;;1.15;;
66707;SDS011;53622;0.000;0.000;2023-08-06T00:06:56;1.20;;;1.00;;
66707;SDS011;53622;0.000;0.000;2023-08-06T00:09:27;1.30;;;1.20;;
66707;SDS011;53622;0.000;0.000;2023-08-06T00:11:56;0.90;;;0.88;;
66707;SDS011;53622;0.000;0.000;2023-08-06T00:14:25;1.85;;;1.08;;
66707;SDS011;53622;0.000;0.000;2023-08-06T00:16:54;1.05;;;0.95;;
66707;SDS011;53622;0.000;0.000;2023-08-06T00:19:23;1.52;;;0.98;;
66707;SDS011;53622;0.000;0.000;2023-08-06T00:21:53;1.13;;;1.02;;
66707;SDS011;53622;0.000;0.000;2023-08-06T00:24:22;1.33;;;1.20;;
66707;SDS011;53622;0.000;0.000;2023-08-06T00:26:53;1.13;;;1.00;;
66707;SDS011;53622;0.000;0.000;2023-08-06T00:29:22;1.20;;;1.10;;
66707;SDS011;53622;0.000;0.000;2023-08-06T00:31:52;1.23;;;1.13;;
66707;SDS011;53622;0.000;0.000;2023-08-06T00:34:21;1.20;;;1.02;;
66707;SDS011;53622;0.000;0.000;2023-08-06T00:36:51;1.55;;;1.02;;
66707;SDS011;53622;0.000;0.000;2023-08-06T00:39:21;1.27;;;1.00;;
66707;SDS011;53622;0.000;0.000;2023-08-06T00:41:50;1.50;;;1.00;;
66707;SDS011;53622;0.000;0.000;2023-08-06T00:44:21;0.90;;;0.90;;
66707;SDS011;53622;0.000;0.000;2023-08-06T00:46:51;1.08;;;0.85;;
66707;SDS011;53622;0.000;0.000;2023-08-06T00:49:20;0.73;;;0.73;;
66707;SDS011;53622;0.000;0.000;2023-08-06T00:51:50;2.35;;;1.00;;
66707;SDS011;53622;0.000;0.000;2023-08-06T00:54:20;1.48;;;0.95;;
66707;SDS011;53622;0.000;0.000;2023-08-06T00:56:50;1.20;;;1.02;;
66707;SDS011;53622;0.000;0.000;2023-08-06T00:59:19;1.10;;;1.00;;
66707;SDS011;53622;0.000;0.000;2023-08-06T01:01:51;0.90;;;0.90;;
66707;SDS011;53622;0.000;0.000;2023-08-06T01:04:21;1.10;;;0.90;;
66707;SDS011;53622;0.000;0.000;2023-08-06T01:06:55;1.40;;;1.15;;
66707;SDS011;53622;0.000;0.000;2023-08-06T01:09:33;0.90;;;0.90;;
66707;SDS011;53622;0.000;0.000;2023-08-06T01:12:10;1.10;;;1.00;;
66707;SDS011;53622;0.000;0.000;2023-08-06T01:14:50;1.27;;;0.90;;
66707;SDS011;53622;0.000;0.000;2023-08-06T01:17:26;0.95;;;0.90;;
66707;SDS011;53622;0.000;0.000;2023-08-06T01:19:56;1.30;;;1.20;;
66707;SDS011;53622;0.000;0.000;2023-08-06T01:22:27;1.20;;;1.02;;
66707;SDS011;53622;0.000;0.000;2023-08-06T01:24:56;1.30;;;1.20;;
66707;SDS011;53622;0.000;0.000;2023-08-06T01:27:30;1.20;;;1.10;;
66707;SDS011;53622;0.000;0.000;2023-08-06T01:30:06;1.20;;;1.08;;
66707;SDS011;53622;0.000;0.000;2023-08-06T01:32:42;1.80;;;1.15;;
66707;SDS011;53622;0.000;0.000;2023-08-06T01:35:15;1.63;;;1.30;;
66707;SDS011;53622;0.000;0.000;2023-08-06T01:37:47;2.45;;;1.40;;
66707;SDS011;53622;0.000;0.000;2023-08-06T01:40:17;1.05;;;0.93;;
66707;SDS011;53622;0.000;0.000;2023-08-06T01:42:46;1.65;;;1.27;;
66707;SDS011;53622;0.000;0.000;2023-08-06T01:45:15;1.55;;;1.45;;
66707;SDS011;53622;0.000;0.000;2023-08-06T01:47:45;1.42;;;1.13;;
66707;SDS011;53622;0.000;0.000;2023-08-06T01:50:14;1.75;;;1.20;;
66707;SDS011;53622;0.000;0.000;2023-08-06T01:52:44;1.30;;;1.20;;
66707;SDS011;53622;0.000;0.000;2023-08-06T01:55:15;1.67;;;1.15;;
66707;SDS011;53622;0.000;0.000;2023-08-06T01:57:45;2.15;;;1.30;;
66707;SDS011;53622;0.000;0.000;2023-08-06T02:00:14;2.05;;;1.05;;
66707;SDS011;53622;0.000;0.000;2023-08-06T02:02:43;1.52;;;1.20;;
66707;SDS011;53622;0.000;0.000;2023-08-06T02:05:13;1.40;;;1.30;;
66707;SDS011;53622;0.000;0.000;2023-08-06T02:07:42;1.15;;;0.90;;
66707;SDS011;53622;0.000;0.000;2023-08-06T02:10:11;1.20;;;1.10;;
66707;SDS011;53622;0.000;0.000;2023-08-06T02:12:42;1.38;;;1.10;;
66707;SDS011;53622;0.000;0.000;2023-08-06T02:15:11;1.13;;;1.02;;
66707;SDS011;53622;0.000;0.000;2023-08-06T02:17:41;1.30;;;0.88;;
66707;SDS011;53622;0.000;0.000;2023-08-06T02:20:10;1.27;;;1.13;;
66707;SDS011;53622;0.000;0.000;2023-08-06T02:22:39;1.02;;;1.00;;
66707;SDS011;53622;0.000;0.000;2023-08-06T02:25:09;1.10;;;1.00;;
66707;SDS011;53622;0.000;0.000;2023-08-06T02:27:38;1.23;;;0.90;;
66707;SDS011;53622;0.000;0.000;2023-08-06T02:30:09;1.33;;;0.95;;
66707;SDS011;53622;0.000;0.000;2023-08-06T02:32:38;1.27;;;0.85;;
66707;SDS011;53622;0.000;0.000;2023-08-06T02:35:08;1.30;;;1.17;;
66707;SDS011;53622;0.000;0.000;2023-08-06T02:37:38;1.83;;;1.10;;
66707;SDS011;53622;0.000;0.000;2023-08-06T02:40:07;1.30;;;1.20;;
66707;SDS011;53622;0.000;0.000;2023-08-06T02:42:37;1.30;;;0.90;;
66707;SDS011;53622;0.000;0.000;2023-08-06T02:45:07;1.00;;;1.00;;
66707;SDS011;53622;0.000;0.000;2023-08-06T02:47:39;0.98;;;0.82;;
66707;SDS011;53622;0.000;0.000;2023-08-06T02:50:08;0.88;;;0.88;;
66707;SDS011;53622;0.000;0.000;2023-08-06T02:52:38;1.25;;;0.88;;
66707;SDS011;53622;0.000;0.000;2023-08-06T02:55:08;0.90;;;0.90;;
66707;SDS011;53622;0.000;0.000;2023-08-06T02:57:42;0.85;;;0.85;;
66707;SDS011;53622;0.000;0.000;2023-08-06T03:00:13;1.23;;;0.98;;
66707;SDS011;53622;0.000;0.000;2023-08-06T03:02:43;0.70;;;0.70;;
66707;SDS011;53622;0.000;0.000;2023-08-06T03:05:23;0.85;;;0.80;;
66707;SDS011;53622;0.000;0.000;2023-08-06T03:07:52;1.02;;;0.90;;
66707;SDS011;53622;0.000;0.000;2023-08-06T03:10:25;0.70;;;0.70;;
66707;SDS011;53622;0.000;0.000;2023-08-06T03:12:57;0.75;;;0.75;;
66707;SDS011;53622;0.000;0.000;2023-08-06T03:15:29;1.00;;;0.88;;
66707;SDS011;53622;0.000;0.000;2023-08-06T03:17:58;1.10;;;0.75;;
66707;SDS011;53622;0.000;0.000;2023-08-06T03:20:28;0.63;;;0.63;;
66707;SDS011;53622;0.000;0.000;2023-08-06T03:22:57;0.70;;;0.65;;
66707;SDS011;53622;0.000;0.000;2023-08-06T03:25:28;1.52;;;0.80;;
66707;SDS011;53622;0.000;0.000;2023-08-06T03:27:58;0.90;;;0.85;;
66707;SDS011;53622;0.000;0.000;2023-08-06T03:30:29;0.70;;;0.70;;
66707;SDS011;53622;0.000;0.000;2023-08-06T03:32:59;0.73;;;0.60;;
66707;SDS011;53622;0.000;0.000;2023-08-06T03:35:29;2.45;;;0.90;;
66707;SDS011;53622;0.000;0.000;2023-08-06T03:37:59;0.85;;;0.60;;
66707;SDS011;53622;0.000;0.000;2023-08-06T03:40:28;0.63;;;0.60;;
66707;SDS011;53622;0.000;0.000;2023-08-06T03:42:59;0.93;;;0.82;;
66707;SDS011;53622;0.000;0.000;2023-08-06T03:45:30;1.00;;;0.80;;
66707;SDS011;53622;0.000;0.000;2023-08-06T03:47:59;1.05;;;0.75;;
66707;SDS011;53622;0.000;0.000;2023-08-06T03:50:28;1.10;;;0.70;;
66707;SDS011;53622;0.000;0.000;2023-08-06T03:52:58;1.02;;;0.80;;
66707;SDS011;53622;0.000;0.000;2023-08-06T03:55:28;1.08;;;0.90;;
66707;SDS011;53622;0.000;0.000;2023-08-06T03:57:57;1.50;;;1.00;;
66707;SDS011;53622;0.000;0.000;2023-08-06T04:00:27;0.85;;;0.73;;
66707;SDS011;53622;0.000;0.000;2023-08-06T04:02:58;0.88;;;0.75;;
66707;SDS011;53622;0.000;0.000;2023-08-06T04:05:30;1.20;;;0.70;;
66707;SDS011;53622;0.000;0.000;2023-08-06T04:08:00;1.13;;;0.70;;
66707;SDS011;53622;0.000;0.000;2023-08-06T04:10:30;0.90;;;0.80;;
66707;SDS011;53622;0.000;0.000;2023-08-06T04:13:00;2.35;;;0.73;;
66707;SDS011;53622;0.000;0.000;2023-08-06T04:15:30;1.20;;;0.70;;
66707;SDS011;53622;0.000;0.000;2023-08-06T04:18:03;1.10;;;0.75;;
66707;SDS011;53622;0.000;0.000;2023-08-06T04:20:32;0.60;;;0.60;;
66707;SDS011;53622;0.000;0.000;2023-08-06T04:23:05;1.02;;;0.68;;
66707;SDS011;53622;0.000;0.000;2023-08-06T04:25:35;1.50;;;0.60;;
66707;SDS011;53622;0.000;0.000;2023-08-06T04:28:05;1.92;;;0.75;;
66707;SDS011;53622;0.000;0.000;2023-08-06T04:30:34;2.38;;;0.73;;
66707;SDS011;53622;0.000;0.000;2023-08-06T04:33:08;2.08;;;1.02;;
66707;SDS011;53622;0.000;0.000;2023-08-06T04:35:37;1.25;;;0.80;;
66707;SDS011;53622;0.000;0.000;2023-08-06T04:38:07;1.73;;;0.70;;
66707;SDS011;53622;0.000;0.000;2023-08-06T04:40:36;1.08;;;0.70;;
66707;SDS011;53622;0.000;0.000;2023-08-06T04:43:06;0.85;;;0.73;;
66707;SDS011;53622;0.000;0.000;2023-08-06T04:45:36;1.48;;;0.82;;
66707;SDS011;53622;0.000;0.000;2023-08-06T04:48:05;0.85;;;0.60;;
66707;SDS011;53622;0.000;0.000;2023-08-06T04:50:36;1.25;;;0.80;;
66707;SDS011;53622;0.000;0.000;2023-08-06T04:53:05;1.88;;;0.70;;
66707;SDS011;53622;0.000;0.000;2023-08-06T04:55:34;1.50;;;0.77;;
66707;SDS011;53622;0.000;0.000;2023-08-06T04:58:04;1.52;;;0.77;;
66707;SDS011;53622;0.000;0.000;2023-08-06T05:00:33;1.95;;;0.60;;
66707;SDS011;53622;0.000;0.000;2023-08-06T05:03:02;1.63;;;0.90;;
66707;SDS011;53622;0.000;0.000;2023-08-06T05:05:32;1.63;;;0.68;;
66707;SDS011;53622;0.000;0.000;2023-08-06T05:08:03;1.83;;;0.80;;
66707;SDS011;53622;0.000;0.000;2023-08-06T05:10:32;2.78;;;0.80;;
66707;SDS011;53622;0.000;0.000;2023-08-06T05:13:02;1.65;;;0.77;;
66707;SDS011;53622;0.000;0.000;2023-08-06T05:15:31;2.13;;;0.80;;
66707;SDS011;53622;0.000;0.000;2023-08-06T05:18:00;0.80;;;0.70;;
66707;SDS011;53622;0.000;0.000;2023-08-06T05:20:30;1.67;;;0.85;;
66707;SDS011;53622;0.000;0.000;2023-08-06T05:22:59;1.10;;;0.82;;
66707;SDS011;53622;0.000;0.000;2023-08-06T05:25:30;0.95;;;0.80;;
66707;SDS011;53622;0.000;0.000;2023-08-06T05:27:59;1.20;;;0.70;;
66707;SDS011;53622;0.000;0.000;2023-08-06T05:30:29;1.45;;;0.70;;
66707;SDS011;53622;0.000;0.000;2023-08-06T05:32:58;1.70;;;0.80;;
66707;SDS011;53622;0.000;0.000;2023-08-06T05:35:28;1.15;;;0.70;;
66707;SDS011;53622;0.000;0.000;2023-08-06T05:37:57;2.45;;;1.00;;
66707;SDS011;53622;0.000;0.000;2023-08-06T05:40:26;1.58;;;0.70;;
66707;SDS011;53622;0.000;0.000;2023-08-06T05:42:57;2.35;;;0.70;;
66707;SDS011;53622;0.000;0.000;2023-08-06T05:45:26;1.98;;;0.77;;
66707;SDS011;53622;0.000;0.000;2023-08-06T05:47:56;2.15;;;0.80;;
66707;SDS011;53622;0.000;0.000;2023-08-06T05:50:26;3.67;;;0.98;;
66707;SDS011;53622;0.000;0.000;2023-08-06T05:52:55;1.90;;;0.85;;
66707;SDS011;53622;0.000;0.000;2023-08-06T05:55:28;4.03;;;0.90;;
66707;SDS011;53622;0.000;0.000;2023-08-06T05:57:59;4.50;;;0.77;;
66707;SDS011;53622;0.000;0.000;2023-08-06T06:00:29;2.53;;;1.02;;
66707;SDS011;53622;0.000;0.000;2023-08-06T06:02:58;1.63;;;0.70;;
66707;SDS011;53622;0.000;0.000;2023-08-06T06:05:28;3.28;;;0.95;;
66707;SDS011;53622;0.000;0.000;2023-08-06T06:07:57;1.95;;;0.80;;
66707;SDS011;53622;0.000;0.000;2023-08-06T06:10:26;4.25;;;0.80;;
66707;SDS011;53622;0.000;0.000;2023-08-06T06:12:56;2.08;;;0.90;;
66707;SDS011;53622;0.000;0.000;2023-08-06T06:15:27;2.70;;;1.10;;
66707;SDS011;53622;0.000;0.000;2023-08-06T06:17:57;1.67;;;0.90;;
66707;SDS011;53622;0.000;0.000;2023-08-06T06:20:26;1.60;;;0.80;;
66707;SDS011;53622;0.000;0.000;2023-08-06T06:22:55;2.63;;;0.63;;
66707;SDS011;53622;0.000;0.000;2023-08-06T06:25:25;3.00;;;0.90;;
66707;SDS011;53622;0.000;0.000;2023-08-06T06:27:54;1.67;;;0.73;;
66707;SDS011;53622;0.000;0.000;2023-08-06T06:30:23;4.15;;;0.98;;
66707;SDS011;53622;0.000;0.000;2023-08-06T06:32:55;3.50;;;1.20;;
66707;SDS011;53622;0.000;0.000;2023-08-06T06:35:25;2.28;;;1.17;;
66707;SDS011;53622;0.000;0.000;2023-08-06T06:37:55;3.00;;;1.08;;
66707;SDS011;53622;0.000;0.000;2023-08-06T06:40:25;2.53;;;1.10;;
66707;SDS011;53622;0.000;0.000;2023-08-06T06:42:55;1.42;;;0.77;;
66707;SDS011;53622;0.000;0.000;2023-08-06T06:45:24;4.38;;;0.95;;
66707;SDS011;53622;0.000;0.000;2023-08-06T06:47:56;2.85;;;1.20;;
66707;SDS011;53622;0.000;0.000;2023-08-06T06:50:25;1.80;;;0.85;;
66707;SDS011;53622;0.000;0.000;2023-08-06T06:52:54;1.23;;;0.70;;
66707;SDS011;53622;0.000;0.000;2023-08-06T06:55:24;2.75;;;1.08;;
66707;SDS011;53622;0.000;0.000;2023-08-06T06:57:54;2.17;;;0.93;;
66707;SDS011;53622;0.000;0.000;2023-08-06T07:00:23;3.35;;;0.88;;
66707;SDS011;53622;0.000;0.000;2023-08-06T07:02:52;1.75;;;0.90;;
66707;SDS011;53622;0.000;0.000;2023-08-06T07:05:24;2.58;;;1.00;;
66707;SDS011;53622;0.000;0.000;2023-08-06T07:07:54;3.08;;;1.13;;
66707;SDS011;53622;0.000;0.000;2023-08-06T07:10:24;2.10;;;1.00;;
66707;SDS011;53622;0.000;0.000;2023-08-06T07:12:55;1.60;;;1.00;;
66707;SDS011;53622;0.000;0.000;2023-08-06T07:15:24;2.28;;;1.08;;
66707;SDS011;53622;0.000;0.000;2023-08-06T07:17:54;2.33;;;1.10;;
66707;SDS011;53622;0.000;0.000;2023-08-06T07:20:25;2.42;;;0.73;;
66707;SDS011;53622;0.000;0.000;2023-08-06T07:22:57;4.40;;;1.20;;
66707;SDS011;53622;0.000;0.000;2023-08-06T07:25:26;1.73;;;0.85;;
66707;SDS011;53622;0.000;0.000;2023-08-06T07:27:56;3.75;;;1.10;;
66707;SDS011;53622;0.000;0.000;2023-08-06T07:30:25;4.25;;;1.00;;
66707;SDS011;53622;0.000;0.000;2023-08-06T07:32:55;3.97;;;1.10;;
66707;SDS011;53622;0.000;0.000;2023-08-06T07:35:28;4.68;;;0.82;;
66707;SDS011;53622;0.000;0.000;2023-08-06T07:37:58;2.47;;;0.85;;
66707;SDS011;53622;0.000;0.000;2023-08-06T07:40:28;3.63;;;0.90;;
66707;SDS011;53622;0.000;0.000;2023-08-06T07:42:58;2.80;;;0.88;;
66707;SDS011;53622;0.000;0.000;2023-08-06T07:45:27;1.77;;;0.80;;
66707;SDS011;53622;0.000;0.000;2023-08-06T07:48:00;0.85;;;0.68;;
66707;SDS011;53622;0.000;0.000;2023-08-06T07:50:32;3.15;;;1.05;;
66707;SDS011;53622;0.000;0.000;2023-08-06T07:53:02;1.88;;;0.73;;
66707;SDS011;53622;0.000;0.000;2023-08-06T07:55:31;1.63;;;0.82;;
66707;SDS011;53622;0.000;0.000;2023-08-06T07:58:01;2.15;;;0.88;;
66707;SDS011;53622;0.000;0.000;2023-08-06T08:00:31;1.45;;;0.73;;
66707;SDS011;53622;0.000;0.000;2023-08-06T08:03:00;3.58;;;1.13;;
66707;SDS011;53622;0.000;0.000;2023-08-06T08:05:32;2.03;;;0.85;;
66707;SDS011;53622;0.000;0.000;2023-08-06T08:08:02;1.95;;;0.68;;
66707;SDS011;53622;0.000;0.000;2023-08-06T08:10:31;3.83;;;0.70;;
66707;SDS011;53622;0.000;0.000;2023-08-06T08:13:01;4.72;;;1.08;;
66707;SDS011;53622;0.000;0.000;2023-08-06T08:15:31;3.20;;;0.93;;
66707;SDS011;53622;0.000;0.000;2023-08-06T08:18:01;1.27;;;0.77;;
66707;SDS011;53622;0.000;0.000;2023-08-06T08:20:30;2.42;;;0.95;;
66707;SDS011;53622;0.000;0.000;2023-08-06T08:23:02;22.13;;;1.70;;
66707;SDS011;53622;0.000;0.000;2023-08-06T08:25:32;27.15;;;2.20;;
66707;SDS011;53622;0.000;0.000;2023-08-06T08:28:01;11.35;;;1.58;;
66707;SDS011;53622;0.000;0.000;2023-08-06T08:30:30;10.68;;;1.10;;
66707;SDS011;53622;0.000;0.000;2023-08-06T08:33:00;9.68;;;1.00;;
66707;SDS011;53622;0.000;0.000;2023-08-06T08:35:29;9.90;;;1.70;;
66707;SDS011;53622;0.000;0.000;2023-08-06T08:38:00;8.90;;;1.38;;
66707;SDS011;53622;0.000;0.000;2023-08-06T08:40:32;5.03;;;1.17;;
66707;SDS011;53622;0.000;0.000;2023-08-06T08:43:04;13.57;;;1.30;;
66707;SDS011;53622;0.000;0.000;2023-08-06T08:45:34;6.68;;;1.50;;
66707;SDS011;53622;0.000;0.000;2023-08-06T08:48:08;4.40;;;1.30;;
66707;SDS011;53622;0.000;0.000;2023-08-06T08:50:39;6.00;;;1.20;;
66707;SDS011;53622;0.000;0.000;2023-08-06T08:53:11;8.88;;;1.00;;
66707;SDS011;53622;0.000;0.000;2023-08-06T08:55:42;3.65;;;0.85;;
66707;SDS011;53622;0.000;0.000;2023-08-06T08:58:12;7.65;;;1.05;;
66707;SDS011;53622;0.000;0.000;2023-08-06T09:00:42;4.15;;;0.82;;
66707;SDS011;53622;0.000;0.000;2023-08-06T09:03:13;4.97;;;0.70;;
66707;SDS011;53622;0.000;0.000;2023-08-06T09:05:44;3.95;;;0.65;;
66707;SDS011;53622;0.000;0.000;2023-08-06T09:08:20;1.80;;;0.60;;
66707;SDS011;53622;0.000;0.000;2023-08-06T09:10:59;6.32;;;0.70;;
66707;SDS011;53622;0.000;0.000;2023-08-06T09:13:30;2.47;;;0.70;;
66707;SDS011;53622;0.000;0.000;2023-08-06T09:15:59;3.25;;;0.73;;
66707;SDS011;53622;0.000;0.000;2023-08-06T09:18:29;3.05;;;0.55;;
66707;SDS011;53622;0.000;0.000;2023-08-06T09:20:59;2.85;;;0.70;;
66707;SDS011;53622;0.000;0.000;2023-08-06T09:23:30;2.10;;;0.55;;
66707;SDS011;53622;0.000;0.000;2023-08-06T09:26:00;1.77;;;0.55;;
66707;SDS011;53622;0.000;0.000;2023-08-06T09:28:36;4.15;;;0.82;;
66707;SDS011;53622;0.000;0.000;2023-08-06T09:31:09;2.17;;;0.52;;
66707;SDS011;53622;0.000;0.000;2023-08-06T09:33:38;2.30;;;0.40;;
66707;SDS011;53622;0.000;0.000;2023-08-06T09:36:08;2.22;;;0.80;;
66707;SDS011;53622;0.000;0.000;2023-08-06T09:38:39;2.55;;;0.50;;
66707;SDS011;53622;0.000;0.000;2023-08-06T09:41:09;4.22;;;0.57;;
66707;SDS011;53622;0.000;0.000;2023-08-06T09:43:41;2.42;;;0.43;;
66707;SDS011;53622;0.000;0.000;2023-08-06T09:46:11;2.78;;;0.60;;
66707;SDS011;53622;0.000;0.000;2023-08-06T09:48:44;1.45;;;0.50;;
66707;SDS011;53622;0.000;0.000;2023-08-06T09:51:14;1.30;;;0.30;;
66707;SDS011;53622;0.000;0.000;2023-08-06T09:53:46;2.58;;;0.98;;
66707;SDS011;53622;0.000;0.000;2023-08-06T09:56:18;4.63;;;1.42;;
66707;SDS011;53622;0.000;0.000;2023-08-06T09:58:47;5.95;;;1.80;;
66707;SDS011;53622;0.000;0.000;2023-08-06T10:01:18;4.15;;;1.33;;
66707;SDS011;53622;0.000;0.000;2023-08-06T10:03:48;7.68;;;2.10;;
66707;SDS011;53622;0.000;0.000;2023-08-06T10:06:20;8.73;;;2.05;;
66707;SDS011;53622;0.000;0.000;2023-08-06T10:08:52;7.07;;;1.88;;
66707;SDS011;53622;0.000;0.000;2023-08-06T10:11:23;6.95;;;1.90;;
66707;SDS011;53622;0.000;0.000;2023-08-06T10:13:54;7.85;;;2.13;;
66707;SDS011;53622;0.000;0.000;2023-08-06T10:16:29;6.47;;;1.88;;
66707;SDS011;53622;0.000;0.000;2023-08-06T10:19:00;6.70;;;1.63;;
66707;SDS011;53622;0.000;0.000;2023-08-06T10:21:31;7.30;;;1.50;;
66707;SDS011;53622;0.000;0.000;2023-08-06T10:24:02;2.95;;;1.45;;
66707;SDS011;53622;0.000;0.000;2023-08-06T10:26:37;3.60;;;1.33;;
66707;SDS011;53622;0.000;0.000;2023-08-06T10:32:04;3.75;;;1.10;;
66707;SDS011;53622;0.000;0.000;2023-08-06T10:37:34;3.55;;;1.02;;
66707;SDS011;53622;0.000;0.000;2023-08-06T10:40:07;6.25;;;1.27;;
66707;SDS011;53622;0.000;0.000;2023-08-06T10:42:37;5.53;;;1.20;;
66707;SDS011;53622;0.000;0.000;2023-08-06T10:45:11;3.30;;;1.10;;
66707;SDS011;53622;0.000;0.000;2023-08-06T10:47:42;3.38;;;1.17;;
66707;SDS011;53622;0.000;0.000;2023-08-06T10:50:13;5.20;;;1.13;;
66707;SDS011;53622;0.000;0.000;2023-08-06T10:52:45;2.97;;;0.95;;
66707;SDS011;53622;0.000;0.000;2023-08-06T10:55:23;3.92;;;1.10;;
66707;SDS011;53622;0.000;0.000;2023-08-06T10:57:53;3.63;;;0.88;;
66707;SDS011;53622;0.000;0.000;2023-08-06T11:00:24;3.60;;;0.98;;
66707;SDS011;53622;0.000;0.000;2023-08-06T11:02:53;2.28;;;0.80;;
66707;SDS011;53622;0.000;0.000;2023-08-06T11:05:23;3.22;;;0.82;;
66707;SDS011;53622;0.000;0.000;2023-08-06T11:07:53;3.30;;;1.15;;
66707;SDS011;53622;0.000;0.000;2023-08-06T11:10:24;3.10;;;0.90;;
66707;SDS011;53622;0.000;0.000;2023-08-06T11:12:53;1.85;;;1.00;;
66707;SDS011;53622;0.000;0.000;2023-08-06T11:15:23;1.67;;;0.90;;
66707;SDS011;53622;0.000;0.000;2023-08-06T11:17:52;2.20;;;0.90;;
66707;SDS011;53622;0.000;0.000;2023-08-06T11:20:22;1.65;;;0.70;;
66707;SDS011;53622;0.000;0.000;2023-08-06T11:22:52;3.75;;;0.93;;
66707;SDS011;53622;0.000;0.000;2023-08-06T11:25:26;2.65;;;0.88;;
66707;SDS011;53622;0.000;0.000;2023-08-06T11:27:56;1.90;;;0.90;;
66707;SDS011;53622;0.000;0.000;2023-08-06T11:30:26;3.13;;;1.00;;
66707;SDS011;53622;0.000;0.000;2023-08-06T11:32:56;4.18;;;0.80;;
66707;SDS011;53622;0.000;0.000;2023-08-06T11:35:25;3.08;;;0.85;;
66707;SDS011;53622;0.000;0.000;2023-08-06T11:37:55;2.47;;;0.90;;
66707;SDS011;53622;0.000;0.000;2023-08-06T11:40:26;2.58;;;0.80;;
66707;SDS011;53622;0.000;0.000;2023-08-06T11:42:56;1.55;;;0.70;;
66707;SDS011;53622;0.000;0.000;2023-08-06T11:45:26;1.58;;;0.70;;
66707;SDS011;53622;0.000;0.000;2023-08-06T11:47:56;1.20;;;0.77;;
66707;SDS011;53622;0.000;0.000;2023-08-06T11:50:26;1.65;;;0.70;;
66707;SDS011;53622;0.000;0.000;2023-08-06T11:52:56;2.67;;;1.15;;
66707;SDS011;53622;0.000;0.000;2023-08-06T11:55:29;1.45;;;0.88;;
66707;SDS011;53622;0.000;0.000;2023-08-06T11:58:02;2.30;;;0.95;;
66707;SDS011;53622;0.000;0.000;2023-08-06T12:00:32;2.63;;;0.90;;
66707;SDS011;53622;0.000;0.000;2023-08-06T12:03:02;1.50;;;0.60;;
66707;SDS011;53622;0.000;0.000;2023-08-06T12:05:34;1.45;;;0.70;;
66707;SDS011;53622;0.000;0.000;2023-08-06T12:08:05;2.00;;;0.77;;
66707;SDS011;53622;0.000;0.000;2023-08-06T12:10:39;0.98;;;0.55;;
66707;SDS011;53622;0.000;0.000;2023-08-06T12:13:09;2.67;;;0.80;;
66707;SDS011;53622;0.000;0.000;2023-08-06T12:15:40;1.58;;;0.70;;
66707;SDS011;53622;0.000;0.000;2023-08-06T12:18:10;2.20;;;0.90;;
66707;SDS011;53622;0.000;0.000;2023-08-06T12:20:40;2.72;;;0.85;;
66707;SDS011;53622;0.000;0.000;2023-08-06T12:23:09;2.35;;;0.63;;
66707;SDS011;53622;0.000;0.000;2023-08-06T12:25:44;1.38;;;0.60;;
66707;SDS011;53622;0.000;0.000;2023-08-06T12:28:13;1.30;;;0.80;;
66707;SDS011;53622;0.000;0.000;2023-08-06T12:30:43;1.88;;;0.77;;
66707;SDS011;53622;0.000;0.000;2023-08-06T12:33:12;1.52;;;0.80;;
66707;SDS011;53622;0.000;0.000;2023-08-06T12:35:42;3.17;;;0.80;;
66707;SDS011;53622;0.000;0.000;2023-08-06T12:38:12;2.47;;;0.80;;
66707;SDS011;53622;0.000;0.000;2023-08-06T12:40:42;1.55;;;0.85;;
66707;SDS011;53622;0.000;0.000;2023-08-06T12:43:12;2.05;;;0.70;;
66707;SDS011;53622;0.000;0.000;2023-08-06T12:45:42;1.38;;;0.60;;
66707;SDS011;53622;0.000;0.000;2023-08-06T12:48:12;1.27;;;0.80;;
66707;SDS011;53622;0.000;0.000;2023-08-06T12:50:42;1.42;;;0.70;;
66707;SDS011;53622;0.000;0.000;2023-08-06T12:53:11;1.27;;;0.70;;
66707;SDS011;53622;0.000;0.000;2023-08-06T12:55:41;0.80;;;0.55;;
66707;SDS011;53622;0.000;0.000;2023-08-06T12:58:12;2.65;;;0.60;;
66707;SDS011;53622;0.000;0.000;2023-08-06T13:00:42;2.40;;;0.85;;
66707;SDS011;53622;0.000;0.000;2023-08-06T13:03:11;0.93;;;0.60;;
66707;SDS011;53622;0.000;0.000;2023-08-06T13:05:41;1.52;;;0.60;;
66707;SDS011;53622;0.000;0.000;2023-08-06T13:08:11;3.10;;;0.80;;
66707;SDS011;53622;0.000;0.000;2023-08-06T13:10:40;1.33;;;0.70;;
66707;SDS011;53622;0.000;0.000;2023-08-06T13:13:11;1.65;;;0.70;;
66707;SDS011;53622;0.000;0.000;2023-08-06T13:15:40;1.52;;;0.70;;
66707;SDS011;53622;0.000;0.000;2023-08-06T13:18:10;0.98;;;0.80;;
66707;SDS011;53622;0.000;0.000;2023-08-06T13:20:39;1.08;;;0.80;;
66707;SDS011;53622;0.000;0.000;2023-08-06T13:23:08;2.17;;;0.77;;
66707;SDS011;53622;0.000;0.000;2023-08-06T13:25:38;4.72;;;0.80;;
66707;SDS011;53622;0.000;0.000;2023-08-06T13:28:08;6.07;;;1.00;;
66707;SDS011;53622;0.000;0.000;2023-08-06T13:30:38;3.25;;;0.63;;
66707;SDS011;53622;0.000;0.000;2023-08-06T13:33:09;3.15;;;0.98;;
66707;SDS011;53622;0.000;0.000;2023-08-06T13:35:39;1.40;;;0.50;;
66707;SDS011;53622;0.000;0.000;2023-08-06T13:38:08;5.45;;;0.75;;
66707;SDS011;53622;0.000;0.000;2023-08-06T13:40:38;3.05;;;0.88;;
66707;SDS011;53622;0.000;0.000;2023-08-06T13:43:07;4.07;;;0.88;;
66707;SDS011;53622;0.000;0.000;2023-08-06T13:45:36;2.60;;;0.60;;
66707;SDS011;53622;0.000;0.000;2023-08-06T13:48:07;5.05;;;0.73;;
66707;SDS011;53622;0.000;0.000;2023-08-06T13:50:37;5.18;;;0.70;;
66707;SDS011;53622;0.000;0.000;2023-08-06T13:53:07;5.85;;;0.88;;
66707;SDS011;53622;0.000;0.000;2023-08-06T13:55:36;2.55;;;1.00;;
66707;SDS011;53622;0.000;0.000;2023-08-06T13:58:06;5.03;;;0.98;;
66707;SDS011;53622;0.000;0.000;2023-08-06T14:00:35;3.53;;;0.98;;
66707;SDS011;53622;0.000;0.000;2023-08-06T14:03:06;4.85;;;0.90;;
66707;SDS011;53622;0.000;0.000;2023-08-06T14:05:36;2.10;;;0.70;;
66707;SDS011;53622;0.000;0.000;2023-08-06T14:08:05;2.60;;;0.80;;
66707;SDS011;53622;0.000;0.000;2023-08-06T14:10:35;1.77;;;0.45;;
66707;SDS011;53622;0.000;0.000;2023-08-06T14:13:04;1.55;;;0.70;;
66707;SDS011;53622;0.000;0.000;2023-08-06T14:15:37;3.60;;;0.70;;
66707;SDS011;53622;0.000;0.000;2023-08-06T14:18:09;3.47;;;0.70;;
66707;SDS011;53622;0.000;0.000;2023-08-06T14:20:38;3.40;;;0.63;;
66707;SDS011;53622;0.000;0.000;2023-08-06T14:23:07;2.03;;;0.70;;
66707;SDS011;53622;0.000;0.000;2023-08-06T14:25:37;2.78;;;0.70;;
66707;SDS011;53622;0.000;0.000;2023-08-06T14:28:07;2.58;;;0.60;;
66707;SDS011;53622;0.000;0.000;2023-08-06T14:30:36;1.55;;;0.70;;
66707;SDS011;53622;0.000;0.000;2023-08-06T14:33:05;3.92;;;0.75;;
66707;SDS011;53622;0.000;0.000;2023-08-06T14:35:53;5.72;;;0.98;;
66707;SDS011;53622;0.000;0.000;2023-08-06T14:38:23;3.67;;;1.00;;
66707;SDS011;53622;0.000;0.000;2023-08-06T14:40:52;1.73;;;0.75;;
66707;SDS011;53622;0.000;0.000;2023-08-06T14:43:21;2.17;;;0.70;;
66707;SDS011;53622;0.000;0.000;2023-08-06T14:45:51;4.68;;;0.70;;
66707;SDS011;53622;0.000;0.000;2023-08-06T14:48:20;1.50;;;0.88;;
66707;SDS011;53622;0.000;0.000;2023-08-06T14:50:49;2.10;;;0.70;;
66707;SDS011;53622;0.000;0.000;2023-08-06T14:53:20;1.52;;;0.70;;
66707;SDS011;53622;0.000;0.000;2023-08-06T14:55:50;0.65;;;0.52;;
66707;SDS011;53622;0.000;0.000;2023-08-06T14:58:19;3.65;;;1.08;;
66707;SDS011;53622;0.000;0.000;2023-08-06T15:00:48;2.13;;;0.75;;
66707;SDS011;53622;0.000;0.000;2023-08-06T15:03:18;1.63;;;0.70;;
66707;SDS011;53622;0.000;0.000;2023-08-06T15:05:47;3.20;;;0.50;;
66707;SDS011;53622;0.000;0.000;2023-08-06T15:08:17;2.45;;;0.82;;
66707;SDS011;53622;0.000;0.000;2023-08-06T15:10:50;2.80;;;0.60;;
66707;SDS011;53622;0.000;0.000;2023-08-06T15:13:20;2.67;;;1.02;;
66707;SDS011;53622;0.000;0.000;2023-08-06T15:15:50;3.10;;;0.90;;
66707;SDS011;53622;0.000;0.000;2023-08-06T15:18:19;5.22;;;0.82;;
66707;SDS011;53622;0.000;0.000;2023-08-06T15:20:48;3.20;;;0.73;;
66707;SDS011;53622;0.000;0.000;2023-08-06T15:23:18;1.90;;;0.88;;
66707;SDS011;53622;0.000;0.000;2023-08-06T15:25:47;3.50;;;0.80;;